THY902 MMMX-LIRF
Flight info
| Callsign | THY902 |
|---|---|
| Flight time | N/A |
| Altitude | 37000 |
| Route | NOXOS3A NOXOS DCT KIROG DCT AVALI DCT SNAKR DCT SUMRS/M084F370 DCT 35N060W 40N040W 42N030W DCT SIVIR/N0483F370 DCT VALKU DCT MOGBO DCT ELKAP |
| Aircraft | B77W/H-SDE1E2E3FGHIJ2J3J4J5M1RWXY/LB1D1 |
Departure
| Time | 2026-05-06 04:01 |
|---|---|
| Airport | Mexico City Benito Juárez International Airport (MMMX) |
Arrival
| Time | N/A |
|---|---|
| Airport | Rome–Fiumicino Leonardo da Vinci International Airport (LIRF) |
| Time | Latitude | Longitude | Altitude | Speed | Heading |
|---|---|---|---|---|---|
| 2026-05-06 03:18 | 19.42304 | -99.08093 | 7308 ft | 0 kts | 166° |
| 2026-05-06 03:31 | 19.42305 | -99.08093 | 7298 ft | 0 kts | 166° |
| 2026-05-06 03:42 | 19.42324 | -99.08099 | 7307 ft | 3 kts | 163° |
| 2026-05-06 03:43 | 19.42350 | -99.08108 | 7307 ft | 3 kts | 159° |
| 2026-05-06 03:43 | 19.42375 | -99.08119 | 7308 ft | 3 kts | 155° |
| 2026-05-06 03:43 | 19.42400 | -99.08131 | 7308 ft | 3 kts | 156° |
| 2026-05-06 03:43 | 19.42424 | -99.08140 | 7308 ft | 3 kts | 180° |
| 2026-05-06 03:44 | 19.42438 | -99.08137 | 7308 ft | 0 kts | 239° |
| 2026-05-06 03:48 | 19.42433 | -99.08147 | 7308 ft | 5 kts | 239° |
| 2026-05-06 03:49 | 19.42414 | -99.08179 | 7315 ft | 6 kts | 239° |
| 2026-05-06 03:49 | 19.42410 | -99.08225 | 7307 ft | 7 kts | 301° |
| 2026-05-06 03:49 | 19.42458 | -99.08254 | 7307 ft | 9 kts | 334° |
| 2026-05-06 03:49 | 19.42518 | -99.08288 | 7307 ft | 10 kts | 326° |
| 2026-05-06 03:50 | 19.42563 | -99.08342 | 7307 ft | 10 kts | 297° |
| 2026-05-06 03:50 | 19.42584 | -99.08391 | 7307 ft | 3 kts | 294° |
| 2026-05-06 03:50 | 19.42593 | -99.08412 | 7307 ft | 3 kts | 294° |
| 2026-05-06 03:50 | 19.42602 | -99.08432 | 7307 ft | 0 kts | 294° |
| 2026-05-06 03:52 | 19.42603 | -99.08435 | 7307 ft | 2 kts | 294° |
| 2026-05-06 03:53 | 19.42616 | -99.08464 | 7307 ft | 4 kts | 294° |
| 2026-05-06 03:53 | 19.42616 | -99.08466 | 7307 ft | 0 kts | 294° |
| 2026-05-06 03:57 | 19.42624 | -99.08485 | 7307 ft | 8 kts | 294° |
| 2026-05-06 03:58 | 19.42658 | -99.08566 | 7308 ft | 13 kts | 294° |
| 2026-05-06 03:58 | 19.42694 | -99.08578 | 7309 ft | 5 kts | 30° |
| 2026-05-06 03:58 | 19.42716 | -99.08551 | 7309 ft | 5 kts | 54° |
| 2026-05-06 03:58 | 19.42719 | -99.08547 | 7309 ft | 0 kts | 53° |
| 2026-05-06 03:59 | 19.42743 | -99.08510 | 7308 ft | 24 kts | 57° |
| 2026-05-06 04:00 | 19.42938 | -99.08162 | 7307 ft | 84 kts | 59° |
| 2026-05-06 04:00 | 19.43329 | -99.07463 | 7308 ft | 136 kts | 60° |
| 2026-05-06 04:00 | 19.43886 | -99.06476 | 7308 ft | 179 kts | 59° |
| 2026-05-06 04:00 | 19.44596 | -99.05265 | 7392 ft | 198 kts | 57° |
| 2026-05-06 04:01 | 19.45298 | -99.04087 | 8017 ft | 180 kts | 54° |
| 2026-05-06 04:01 | 19.45981 | -99.03001 | 8470 ft | 184 kts | 54° |
| 2026-05-06 04:01 | 19.46770 | -99.01873 | 8557 ft | 192 kts | 51° |
| 2026-05-06 04:01 | 19.47651 | -99.00812 | 8902 ft | 194 kts | 45° |
| 2026-05-06 04:02 | 19.48608 | -98.99756 | 8994 ft | 202 kts | 45° |
| 2026-05-06 04:02 | 19.49572 | -98.98688 | 9248 ft | 199 kts | 46° |
| 2026-05-06 04:02 | 19.50480 | -98.97519 | 9117 ft | 219 kts | 58° |
| 2026-05-06 04:02 | 19.51286 | -98.96049 | 8907 ft | 242 kts | 59° |
| 2026-05-06 04:03 | 19.52120 | -98.94532 | 9369 ft | 235 kts | 58° |
| 2026-05-06 04:03 | 19.52936 | -98.93016 | 9587 ft | 240 kts | 62° |
| 2026-05-06 04:03 | 19.53704 | -98.91400 | 9739 ft | 253 kts | 64° |
| 2026-05-06 04:03 | 19.54416 | -98.89613 | 9704 ft | 273 kts | 79° |
| 2026-05-06 04:04 | 19.54583 | -98.87565 | 9829 ft | 285 kts | 88° |
| 2026-05-06 04:04 | 19.54784 | -98.85421 | 9882 ft | 299 kts | 80° |
| 2026-05-06 04:04 | 19.55205 | -98.83224 | 10022 ft | 312 kts | 77° |
| 2026-05-06 04:04 | 19.55744 | -98.80931 | 10128 ft | 328 kts | 75° |
| 2026-05-06 04:05 | 19.56347 | -98.78574 | 10217 ft | 344 kts | 75° |
| 2026-05-06 04:05 | 19.57003 | -98.76076 | 10355 ft | 357 kts | 75° |
| 2026-05-06 04:05 | 19.57678 | -98.73516 | 10691 ft | 365 kts | 75° |
| 2026-05-06 04:05 | 19.58285 | -98.70872 | 11009 ft | 372 kts | 79° |
| 2026-05-06 04:06 | 19.58751 | -98.68159 | 11462 ft | 376 kts | 81° |
| 2026-05-06 04:06 | 19.59189 | -98.65412 | 11949 ft | 380 kts | 81° |
| 2026-05-06 04:06 | 19.59639 | -98.62637 | 12443 ft | 384 kts | 80° |
| 2026-05-06 04:06 | 19.60109 | -98.59839 | 12920 ft | 387 kts | 79° |
| 2026-05-06 04:07 | 19.60597 | -98.57021 | 13418 ft | 390 kts | 79° |
| 2026-05-06 04:07 | 19.61085 | -98.54222 | 13914 ft | 393 kts | 79° |
| 2026-05-06 04:07 | 19.61574 | -98.51370 | 14360 ft | 393 kts | 81° |
| 2026-05-06 04:07 | 19.61741 | -98.48495 | 14785 ft | 391 kts | 92° |
| 2026-05-06 04:08 | 19.61573 | -98.45610 | 15271 ft | 392 kts | 94° |
| 2026-05-06 04:08 | 19.61408 | -98.42715 | 15738 ft | 394 kts | 92° |
| 2026-05-06 04:08 | 19.61300 | -98.39801 | 16212 ft | 396 kts | 92° |
| 2026-05-06 04:08 | 19.61214 | -98.36877 | 16705 ft | 398 kts | 91° |
| 2026-05-06 04:09 | 19.61135 | -98.33981 | 17167 ft | 399 kts | 92° |
| 2026-05-06 04:09 | 19.61056 | -98.31038 | 17665 ft | 400 kts | 92° |
| 2026-05-06 04:09 | 19.60976 | -98.28087 | 18170 ft | 401 kts | 92° |
| 2026-05-06 04:09 | 19.60895 | -98.25132 | 18628 ft | 401 kts | 92° |
| 2026-05-06 04:10 | 19.60813 | -98.22173 | 19079 ft | 401 kts | 92° |
| 2026-05-06 04:10 | 19.60730 | -98.19213 | 19523 ft | 402 kts | 92° |
| 2026-05-06 04:10 | 19.60645 | -98.16249 | 19970 ft | 402 kts | 92° |
| 2026-05-06 04:10 | 19.60561 | -98.13286 | 20429 ft | 402 kts | 92° |
| 2026-05-06 04:11 | 19.60476 | -98.10322 | 20887 ft | 402 kts | 92° |
| 2026-05-06 04:11 | 19.60391 | -98.07359 | 21355 ft | 402 kts | 92° |
| 2026-05-06 04:11 | 19.60307 | -98.04445 | 21824 ft | 401 kts | 92° |
| 2026-05-06 04:11 | 19.60288 | -98.01503 | 22273 ft | 396 kts | 85° |
| 2026-05-06 04:12 | 19.61001 | -97.98715 | 22717 ft | 393 kts | 62° |
| 2026-05-06 04:12 | 19.62427 | -97.96285 | 23177 ft | 385 kts | 60° |
| 2026-05-06 04:12 | 19.63765 | -97.93772 | 23072 ft | 401 kts | 65° |
| 2026-05-06 04:12 | 19.65009 | -97.91077 | 23078 ft | 411 kts | 66° |
| 2026-05-06 04:13 | 19.66244 | -97.88300 | 23120 ft | 421 kts | 66° |
| 2026-05-06 04:13 | 19.67514 | -97.85472 | 23216 ft | 430 kts | 66° |
| 2026-05-06 04:13 | 19.68815 | -97.82624 | 23277 ft | 439 kts | 65° |
| 2026-05-06 04:13 | 19.70178 | -97.79685 | 23364 ft | 448 kts | 65° |
| 2026-05-06 04:14 | 19.71580 | -97.76693 | 23437 ft | 457 kts | 65° |
| 2026-05-06 04:14 | 19.73009 | -97.73659 | 23585 ft | 462 kts | 65° |
| 2026-05-06 04:14 | 19.74452 | -97.70602 | 23874 ft | 464 kts | 65° |
| 2026-05-06 04:14 | 19.75897 | -97.67541 | 24191 ft | 464 kts | 65° |
| 2026-05-06 04:15 | 19.77346 | -97.64466 | 24411 ft | 466 kts | 65° |
| 2026-05-06 04:15 | 19.78798 | -97.61381 | 24655 ft | 468 kts | 65° |
| 2026-05-06 04:15 | 19.80256 | -97.58281 | 24874 ft | 471 kts | 65° |
| 2026-05-06 04:15 | 19.81702 | -97.55201 | 25083 ft | 474 kts | 65° |
| 2026-05-06 04:16 | 19.83177 | -97.52061 | 25319 ft | 476 kts | 65° |
| 2026-05-06 04:16 | 19.84656 | -97.48909 | 25564 ft | 478 kts | 65° |